Home > Products > Valid Products > TAF

000
FTUS45 KBYZ 291733
TAFLVM
TAF
KLVM 291733Z 2918/3018 VRB06KT P6SM FEW100
     FM292000 21010KT P6SM SCT010
     FM300800 21010KT P6SM VCSH SCT060 BKN100
     FM301600 26014KT P6SM -SHRA SCT030 OVC050=



000
FTUS45 KBYZ 291733
TAFBIL
TAF
KBIL 291733Z 2918/3018 05006KT P6SM FEW100
     FM292100 10010KT P6SM SCT100
     FM300900 23008KT P6SM SCT100
     FM301300 24008KT P6SM VCSH SCT060 BKN100=



000
FTUS45 KBYZ 291733
TAFMLS
TAF
KMLS 291733Z 2918/3018 33012KT P6SM BKN025
     FM292000 34012KT P6SM FEW040 SCT100
     FM292300 10008KT P6SM SCT100
     FM301500 15008KT P6SM SCT080 BKN100=



000
FTUS45 KBYZ 291733
TAFSHR
TAF
KSHR 291733Z 2918/3018 33006KT P6SM FEW025 SCT100
     FM292000 08006KT P6SM SCT100
     FM300200 13006KT P6SM SCT100
     FM301400 12006KT P6SM BKN100=



000
FTUS45 KBYZ 291733
TAFMLS
TAF
KMLS 291733Z 2918/3018 33012KT P6SM BKN025
     FM292000 34012KT P6SM FEW040 SCT100
     FM292300 10008KT P6SM SCT100
     FM301500 15008KT P6SM SCT080 BKN100=



000
FTUS45 KBYZ 291733
TAFBIL
TAF
KBIL 291733Z 2918/3018 05006KT P6SM FEW100
     FM292100 10010KT P6SM SCT100
     FM300900 23008KT P6SM SCT100
     FM301300 24008KT P6SM VCSH SCT060 BKN100=



000
FTUS45 KBYZ 291733
TAFSHR
TAF
KSHR 291733Z 2918/3018 33006KT P6SM FEW025 SCT100
     FM292000 08006KT P6SM SCT100
     FM300200 13006KT P6SM SCT100
     FM301400 12006KT P6SM BKN100=



000
FTUS45 KBYZ 291733
TAFLVM
TAF
KLVM 291733Z 2918/3018 VRB06KT P6SM FEW100
     FM292000 21010KT P6SM SCT010
     FM300800 21010KT P6SM VCSH SCT060 BKN100
     FM301600 26014KT P6SM -SHRA SCT030 OVC050=



000
FTUS45 KBYZ 291505 AAA
TAFMLS
TAF AMD
KMLS 291505Z 2915/3012 32012KT P6SM SCT010 BKN020
     FM291700 32014KT P6SM SCT010 BKN040
     FM291900 07014KT P6SM FEW040 SCT100=



000
FTUS45 KBYZ 291505 AAA
TAFMLS
TAF AMD
KMLS 291505Z 2915/3012 32012KT P6SM SCT010 BKN020
     FM291700 32014KT P6SM SCT010 BKN040
     FM291900 07014KT P6SM FEW040 SCT100=



000
FTUS45 KBYZ 291427 AAA
TAFSHR
TAF AMD
KSHR 291427Z 2914/3012 33006KT P6SM VCSH BKN010
     FM291700 33006KT P6SM FEW010 SCT100
     FM292000 VRB06KT P6SM FEW020 SCT100
     FM300200 11011KT P6SM SCT100=



000
FTUS45 KBYZ 291427 AAA
TAFSHR
TAF AMD
KSHR 291427Z 2914/3012 33006KT P6SM VCSH BKN010
     FM291700 33006KT P6SM FEW010 SCT100
     FM292000 VRB06KT P6SM FEW020 SCT100
     FM300200 11011KT P6SM SCT100=



000
FTUS45 KBYZ 291120
TAFMLS
TAF
KMLS 291120Z 2912/3012 VRB06KT P6SM VCSH FEW040 BKN100
     FM291400 32014KT P6SM BKN035
     FM292100 07006KT P6SM BKN040=



000
FTUS45 KBYZ 291120
TAFBIL
TAF
KBIL 291120Z 2912/3012 35010KT P6SM SCT025
     FM291400 VRB05KT P6SM SCT015 BKN035
     FM291900 10009KT P6SM FEW050=



000
FTUS45 KBYZ 291120
TAFSHR
TAF
KSHR 291120Z 2912/3012 VRB06KT P6SM VCSH SCT050 BKN080
     FM292000 VRB06KT P6SM FEW020 SCT100
     FM300200 11011KT P6SM SCT100=



000
FTUS45 KBYZ 291120
TAFMLS
TAF
KMLS 291120Z 2912/3012 VRB06KT P6SM VCSH FEW040 BKN100
     FM291400 32014KT P6SM BKN035
     FM292100 07006KT P6SM BKN040=



000
FTUS45 KBYZ 291120
TAFLVM
TAF
KLVM 291120Z 2912/3012 VRB06KT P6SM SCT080
     FM300200 10010KT P6SM VCTS SCT070CB BKN120=



000
FTUS45 KBYZ 291120
TAFSHR
TAF
KSHR 291120Z 2912/3012 VRB06KT P6SM VCSH SCT050 BKN080
     FM292000 VRB06KT P6SM FEW020 SCT100
     FM300200 11011KT P6SM SCT100=



000
FTUS45 KBYZ 291120
TAFLVM
TAF
KLVM 291120Z 2912/3012 VRB06KT P6SM SCT080
     FM300200 10010KT P6SM VCTS SCT070CB BKN120=



000
FTUS45 KBYZ 291120
TAFBIL
TAF
KBIL 291120Z 2912/3012 35010KT P6SM SCT025
     FM291400 VRB05KT P6SM SCT015 BKN035
     FM291900 10009KT P6SM FEW050=



000
FTUS45 KBYZ 290917 AAC
TAFLVM
TAF AMD
KLVM 290917Z 2909/3006 31012KT P6SM VCSH SCT080 BKN100
     FM291000 26010KT P6SM SCT100
     FM291600 VRB06KT P6SM SKC
     FM300200 10010KT P6SM VCTS SCT070CB BKN120=



000
FTUS45 KBYZ 290917 AAC
TAFLVM
TAF AMD
KLVM 290917Z 2909/3006 31012KT P6SM VCSH SCT080 BKN100
     FM291000 26010KT P6SM SCT100
     FM291600 VRB06KT P6SM SKC
     FM300200 10010KT P6SM VCTS SCT070CB BKN120=



000
FTUS45 KBYZ 290917 AAB
TAFMLS
TAF AMD
KMLS 290917Z 2909/3006 03012G21KT P6SM VCSH SCT100
     FM291100 31012KT P6SM VCSH FEW040 BKN100
     FM291300 32014KT P6SM BKN035
     FM292100 07006KT P6SM BKN040=



000
FTUS45 KBYZ 290917 AAB
TAFMLS
TAF AMD
KMLS 290917Z 2909/3006 03012G21KT P6SM VCSH SCT100
     FM291100 31012KT P6SM VCSH FEW040 BKN100
     FM291300 32014KT P6SM BKN035
     FM292100 07006KT P6SM BKN040=



000
FTUS45 KBYZ 290916 AAD
TAFBIL
TAF AMD
KBIL 290916Z 2909/3006 36010KT P6SM BKN025
     FM291300 VRB05KT P6SM SCT015 BKN035
     FM291900 10009KT P6SM FEW050=



000
FTUS45 KBYZ 290916 AAD
TAFBIL
TAF AMD
KBIL 290916Z 2909/3006 36010KT P6SM BKN025
     FM291300 VRB05KT P6SM SCT015 BKN035
     FM291900 10009KT P6SM FEW050=



000
FTUS45 KBYZ 290804 AAA
TAFMLS
TAF AMD
KMLS 290804Z 2908/3006 33015G24KT P6SM SCT100
     FM291100 31012KT P6SM VCSH FEW040 BKN100
     FM291300 32014KT P6SM BKN035
     FM292100 07006KT P6SM BKN040=



000
FTUS45 KBYZ 290804 AAA
TAFMLS
TAF AMD
KMLS 290804Z 2908/3006 33015G24KT P6SM SCT100
     FM291100 31012KT P6SM VCSH FEW040 BKN100
     FM291300 32014KT P6SM BKN035
     FM292100 07006KT P6SM BKN040=



000
FTUS45 KBYZ 290803 AAA
TAFSHR
TAF AMD
KSHR 290803Z 2908/3006 31024G33KT P6SM VCSH FEW050 BKN090
     FM291400 32011G18KT P6SM FEW020
     FM292000 VRB06KT P6SM FEW020 SCT100
     FM300200 11011KT P6SM SCT100=



000
FTUS45 KBYZ 290803 AAA
TAFSHR
TAF AMD
KSHR 290803Z 2908/3006 31024G33KT P6SM VCSH FEW050 BKN090
     FM291400 32011G18KT P6SM FEW020
     FM292000 VRB06KT P6SM FEW020 SCT100
     FM300200 11011KT P6SM SCT100=



000
FTUS45 KBYZ 290802 AAC
TAFBIL
TAF AMD
KBIL 290802Z 2908/3006 29015G24KT P6SM VCSH SCT040
     FM291300 VRB05KT P6SM SCT015 BKN030
     FM291900 10009KT P6SM FEW050=



000
FTUS45 KBYZ 290802 AAC
TAFBIL
TAF AMD
KBIL 290802Z 2908/3006 29015G24KT P6SM VCSH SCT040
     FM291300 VRB05KT P6SM SCT015 BKN030
     FM291900 10009KT P6SM FEW050=



000
FTUS45 KBYZ 290646 AAB
TAFLVM
TAF AMD
KLVM 290646Z 2907/3006 VRB06KT P6SM -SHRA SCT080 BKN100
     FM291000 26010KT P6SM SCT100
     FM291600 VRB06KT P6SM SKC
     FM300200 10010KT P6SM VCTS SCT070CB BKN120=



000
FTUS45 KBYZ 290646 AAB
TAFLVM
TAF AMD
KLVM 290646Z 2907/3006 VRB06KT P6SM -SHRA SCT080 BKN100
     FM291000 26010KT P6SM SCT100
     FM291600 VRB06KT P6SM SKC
     FM300200 10010KT P6SM VCTS SCT070CB BKN120=



000
FTUS45 KBYZ 290644 AAB
TAFBIL
TAF AMD
KBIL 290644Z 2907/3006 24011KT P6SM VCSH SCT040
     FM291300 VRB05KT P6SM SCT015 BKN030
     FM291900 10009KT P6SM FEW050=



000
FTUS45 KBYZ 290644 AAB
TAFBIL
TAF AMD
KBIL 290644Z 2907/3006 24011KT P6SM VCSH SCT040
     FM291300 VRB05KT P6SM SCT015 BKN030
     FM291900 10009KT P6SM FEW050=



000
FTUS45 KBYZ 290550 AAA
TAFBIL
TAF AMD
KBIL 290550Z 2906/3006 27025G35KT 2SM TSRA SCT050CB BKN100
      TEMPO 2906/2908 VRB06KT 6SM -SHRA SCT030
     FM290800 27007KT P6SM BKN120
     FM291300 VRB05KT P6SM SCT015 BKN030
     FM291900 10009KT P6SM FEW050=



000
FTUS45 KBYZ 290550 AAA
TAFBIL
TAF AMD
KBIL 290550Z 2906/3006 27025G35KT 2SM TSRA SCT050CB BKN100
      TEMPO 2906/2908 VRB06KT 6SM -SHRA SCT030
     FM290800 27007KT P6SM BKN120
     FM291300 VRB05KT P6SM SCT015 BKN030
     FM291900 10009KT P6SM FEW050=



000
FTUS45 KBYZ 290533 AAA
TAFLVM
TAF AMD
KLVM 290533Z 2906/3006 22019G27KT P6SM VCTS SCT080CB BKN100
     FM290700 26010KT P6SM SCT100
     FM291600 VRB06KT P6SM SKC
     FM300200 10010KT P6SM VCTS SCT070CB BKN120=



000
FTUS45 KBYZ 290533 AAA
TAFLVM
TAF AMD
KLVM 290533Z 2906/3006 22019G27KT P6SM VCTS SCT080CB BKN100
     FM290700 26010KT P6SM SCT100
     FM291600 VRB06KT P6SM SKC
     FM300200 10010KT P6SM VCTS SCT070CB BKN120=



000
FTUS45 KBYZ 290532
TAFBIL
TAF
KBIL 290532Z 2906/3006 22011KT P6SM TSRA SCT080CB BKN100
      TEMPO 2906/2908 VRB06KT P6SM -SHRA SCT050
     FM290800 27007KT P6SM BKN120
     FM291300 VRB05KT P6SM SCT015 BKN030
     FM291900 10009KT P6SM FEW050=



000
FTUS45 KBYZ 290532
TAFLVM
TAF
KLVM 290532Z 2906/3006 22019G27KT P6SM -TSRA SCT080CB BKN100
     FM290700 26010KT P6SM SCT100
     FM291600 VRB06KT P6SM SKC
     FM300200 10010KT P6SM VCTS SCT070CB BKN120=



000
FTUS45 KBYZ 290532
TAFSHR
TAF
KSHR 290532Z 2906/3006 VRB05KT P6SM VCSH SCT090
     FM290800 30014KT P6SM VCSH FEW050 BKN090
     FM291400 32011G18KT P6SM FEW020
     FM292000 VRB06KT P6SM FEW020 SCT100
     FM300200 11011KT P6SM SCT100=



000
FTUS45 KBYZ 290532
TAFMLS
TAF
KMLS 290532Z 2906/3006 VRB06KT P6SM SCT100
     FM291100 31012KT P6SM VCSH FEW040 BKN100
     FM291300 32014KT P6SM BKN035
     FM292100 07006KT P6SM BKN040=



000
FTUS45 KBYZ 290532
TAFBIL
TAF
KBIL 290532Z 2906/3006 22011KT P6SM TSRA SCT080CB BKN100
      TEMPO 2906/2908 VRB06KT P6SM -SHRA SCT050
     FM290800 27007KT P6SM BKN120
     FM291300 VRB05KT P6SM SCT015 BKN030
     FM291900 10009KT P6SM FEW050=



000
FTUS45 KBYZ 290532
TAFLVM
TAF
KLVM 290532Z 2906/3006 22019G27KT P6SM -TSRA SCT080CB BKN100
     FM290700 26010KT P6SM SCT100
     FM291600 VRB06KT P6SM SKC
     FM300200 10010KT P6SM VCTS SCT070CB BKN120=



000
FTUS45 KBYZ 290532
TAFMLS
TAF
KMLS 290532Z 2906/3006 VRB06KT P6SM SCT100
     FM291100 31012KT P6SM VCSH FEW040 BKN100
     FM291300 32014KT P6SM BKN035
     FM292100 07006KT P6SM BKN040=



000
FTUS45 KBYZ 290532
TAFSHR
TAF
KSHR 290532Z 2906/3006 VRB05KT P6SM VCSH SCT090
     FM290800 30014KT P6SM VCSH FEW050 BKN090
     FM291400 32011G18KT P6SM FEW020
     FM292000 VRB06KT P6SM FEW020 SCT100
     FM300200 11011KT P6SM SCT100=



000
FTUS45 KBYZ 290520 AAB
TAFBIL
TAF AMD
KBIL 290520Z 2905/2924 22011KT P6SM VCTS SCT080CB BKN100
      TEMPO 2905/2908 VRB15G25KT 5SM TSRA SCT080CB
     FM290900 27007KT P6SM BKN120
     FM291500 05005KT P6SM SCT015 BKN030
     FM291900 09006KT P6SM FEW050=



000
FTUS45 KBYZ 290520 AAB
TAFBIL
TAF AMD
KBIL 290520Z 2905/2924 22011KT P6SM VCTS SCT080CB BKN100
      TEMPO 2905/2908 VRB15G25KT 5SM TSRA SCT080CB
     FM290900 27007KT P6SM BKN120
     FM291500 05005KT P6SM SCT015 BKN030
     FM291900 09006KT P6SM FEW050=



000
FTUS45 KBYZ 290259 AAA
TAFLVM
TAF AMD
KLVM 290259Z 2903/2924 22009KT P6SM VCTS SCT080CB BKN100
      TEMPO 2903/2904 VRB15G25KT
     FM290400 27012KT P6SM VCTS SCT080CB BKN100
     FM290700 26010KT P6SM SCT100
     FM291500 09010KT P6SM SKC=



000
FTUS45 KBYZ 290259 AAA
TAFLVM
TAF AMD
KLVM 290259Z 2903/2924 22009KT P6SM VCTS SCT080CB BKN100
      TEMPO 2903/2904 VRB15G25KT
     FM290400 27012KT P6SM VCTS SCT080CB BKN100
     FM290700 26010KT P6SM SCT100
     FM291500 09010KT P6SM SKC=



000
FTUS45 KBYZ 290257 AAA
TAFBIL
TAF AMD
KBIL 290257Z 2903/2924 12007KT P6SM SCT090
     FM290400 27011KT P6SM VCTS SCT080CB BKN100
     FM290900 27007KT P6SM BKN120
     FM291500 05005KT P6SM SCT015 BKN030
     FM291900 09006KT P6SM FEW050=



000
FTUS45 KBYZ 290257 AAA
TAFBIL
TAF AMD
KBIL 290257Z 2903/2924 12007KT P6SM SCT090
     FM290400 27011KT P6SM VCTS SCT080CB BKN100
     FM290900 27007KT P6SM BKN120
     FM291500 05005KT P6SM SCT015 BKN030
     FM291900 09006KT P6SM FEW050=



000
FTUS45 KBYZ 282320
TAFMLS
TAF
KMLS 282320Z 2900/2924 30008KT P6SM SCT100
     FM291100 31012KT P6SM VCSH FEW040 BKN100
     FM291300 32014KT P6SM BKN030
     FM291800 33014KT P6SM SCT015 BKN030
     FM292100 07006KT P6SM BKN040=



000
FTUS45 KBYZ 282320
TAFBIL
TAF
KBIL 282320Z 2900/2924 28012KT P6SM SCT100
     FM290500 27011KT P6SM VCSH SCT080 BKN100
     FM290900 27007KT P6SM BKN120
     FM291500 05005KT P6SM SCT015 BKN030
     FM291900 09006KT P6SM FEW050=



000
FTUS45 KBYZ 282320
TAFLVM
TAF
KLVM 282320Z 2900/2924 27010G16KT P6SM SCT120
     FM290400 27012KT P6SM VCTS SCT080CB BKN100
     FM290700 26010KT P6SM SCT100
     FM291500 09010KT P6SM SKC=



000
FTUS45 KBYZ 282320
TAFSHR
TAF
KSHR 282320Z 2900/2924 01011KT P6SM SKC
     FM290600 VRB05KT P6SM SCT090
     FM291200 32010KT P6SM VCSH FEW050 BKN090
     FM291400 09005KT P6SM FEW050=



000
FTUS45 KBYZ 282320
TAFSHR
TAF
KSHR 282320Z 2900/2924 01011KT P6SM SKC
     FM290600 VRB05KT P6SM SCT090
     FM291200 32010KT P6SM VCSH FEW050 BKN090
     FM291400 09005KT P6SM FEW050=



000
FTUS45 KBYZ 282320
TAFLVM
TAF
KLVM 282320Z 2900/2924 27010G16KT P6SM SCT120
     FM290400 27012KT P6SM VCTS SCT080CB BKN100
     FM290700 26010KT P6SM SCT100
     FM291500 09010KT P6SM SKC=



000
FTUS45 KBYZ 282320
TAFBIL
TAF
KBIL 282320Z 2900/2924 28012KT P6SM SCT100
     FM290500 27011KT P6SM VCSH SCT080 BKN100
     FM290900 27007KT P6SM BKN120
     FM291500 05005KT P6SM SCT015 BKN030
     FM291900 09006KT P6SM FEW050=



000
FTUS45 KBYZ 282320
TAFMLS
TAF
KMLS 282320Z 2900/2924 30008KT P6SM SCT100
     FM291100 31012KT P6SM VCSH FEW040 BKN100
     FM291300 32014KT P6SM BKN030
     FM291800 33014KT P6SM SCT015 BKN030
     FM292100 07006KT P6SM BKN040=



000
FTUS45 KBYZ 282220 AAA
TAFMLS
TAF AMD
KMLS 282220Z 2822/2918 25010KT P6SM FEW100
     FM290100 VRB05KT P6SM FEW120
     FM290900 30009KT P6SM VCSH SCT050 BKN080=



000
FTUS45 KBYZ 282220 AAA
TAFMLS
TAF AMD
KMLS 282220Z 2822/2918 25010KT P6SM FEW100
     FM290100 VRB05KT P6SM FEW120
     FM290900 30009KT P6SM VCSH SCT050 BKN080=



000
FTUS45 KBYZ 282122 AAA
TAFSHR
TAF AMD
KSHR 282122Z 2821/2918 32012G19KT P6SM FEW100
     FM290000 VRB04KT P6SM SKC
     FM290700 30006KT P6SM VCSH FEW060 BKN080
     FM291500 32009KT P6SM SCT100=



000
FTUS45 KBYZ 282122 AAA
TAFSHR
TAF AMD
KSHR 282122Z 2821/2918 32012G19KT P6SM FEW100
     FM290000 VRB04KT P6SM SKC
     FM290700 30006KT P6SM VCSH FEW060 BKN080
     FM291500 32009KT P6SM SCT100=



000
FTUS45 KBYZ 281735
TAFMLS
TAF
KMLS 281735Z 2818/2918 28010G16KT P6SM FEW100
     FM290100 VRB05KT P6SM FEW120
     FM290900 30009KT P6SM VCSH SCT050 BKN080=



000
FTUS45 KBYZ 281735
TAFBIL
TAF
KBIL 281735Z 2818/2918 23010KT P6SM FEW100
     FM281900 29012G19KT P6SM FEW100
     FM290100 24007KT P6SM SCT090
     FM290400 27010KT P6SM VCTS SCT060 BKN080CB
     FM290900 33007KT P6SM BKN080=



000
FTUS45 KBYZ 281735
TAFSHR
TAF
KSHR 281735Z 2818/2918 32011KT P6SM FEW100
     FM290000 VRB04KT P6SM SKC
     FM290700 30006KT P6SM VCSH FEW060 BKN080
     FM291500 32009KT P6SM SCT100=



000
FTUS45 KBYZ 281735
TAFLVM
TAF
KLVM 281735Z 2818/2918 26013G19KT P6SM SCT100
     FM290100 24012KT P6SM VCTS SCT050 BKN070CB
     FM290700 29010KT P6SM SCT100=



000
FTUS45 KBYZ 281735
TAFMLS
TAF
KMLS 281735Z 2818/2918 28010G16KT P6SM FEW100
     FM290100 VRB05KT P6SM FEW120
     FM290900 30009KT P6SM VCSH SCT050 BKN080=



000
FTUS45 KBYZ 281735
TAFBIL
TAF
KBIL 281735Z 2818/2918 23010KT P6SM FEW100
     FM281900 29012G19KT P6SM FEW100
     FM290100 24007KT P6SM SCT090
     FM290400 27010KT P6SM VCTS SCT060 BKN080CB
     FM290900 33007KT P6SM BKN080=



000
FTUS45 KBYZ 281735
TAFLVM
TAF
KLVM 281735Z 2818/2918 26013G19KT P6SM SCT100
     FM290100 24012KT P6SM VCTS SCT050 BKN070CB
     FM290700 29010KT P6SM SCT100=



000
FTUS45 KBYZ 281735
TAFSHR
TAF
KSHR 281735Z 2818/2918 32011KT P6SM FEW100
     FM290000 VRB04KT P6SM SKC
     FM290700 30006KT P6SM VCSH FEW060 BKN080
     FM291500 32009KT P6SM SCT100=



000
FTUS45 KBYZ 281256 AAA
TAFLVM
TAF AMD
KLVM 281256Z 2813/2912 32012G20KT P6SM SKC
     FM281600 27013G19KT P6SM SCT100
     FM290200 30007KT P6SM VCSH SCT100=



000
FTUS45 KBYZ 281256 AAA
TAFLVM
TAF AMD
KLVM 281256Z 2813/2912 32012G20KT P6SM SKC
     FM281600 27013G19KT P6SM SCT100
     FM290200 30007KT P6SM VCSH SCT100=



000
FTUS45 KBYZ 281120
TAFSHR
TAF
KSHR 281120Z 2812/2912 VRB04KT P6SM SKC
     FM281700 32011KT P6SM FEW100
     FM290000 VRB05KT P6SM SKC=



000
FTUS45 KBYZ 281120
TAFMLS
TAF
KMLS 281120Z 2812/2912 14006KT P6SM SKC
     FM281600 26009KT P6SM FEW100
     FM290100 28005KT P6SM FEW070=



000
FTUS45 KBYZ 281120
TAFMLS
TAF
KMLS 281120Z 2812/2912 14006KT P6SM SKC
     FM281600 26009KT P6SM FEW100
     FM290100 28005KT P6SM FEW070=



000
FTUS45 KBYZ 281120
TAFLVM
TAF
KLVM 281120Z 2812/2912 VRB06KT P6SM SKC
     FM281600 27013G19KT P6SM SCT100
     FM290200 30007KT P6SM VCSH SCT100=



000
FTUS45 KBYZ 281120
TAFBIL
TAF
KBIL 281120Z 2812/2912 23012KT P6SM SKC
     FM281800 27012G19KT P6SM SCT100
     FM290200 21007KT P6SM SCT090=



000
FTUS45 KBYZ 281120
TAFSHR
TAF
KSHR 281120Z 2812/2912 VRB04KT P6SM SKC
     FM281700 32011KT P6SM FEW100
     FM290000 VRB05KT P6SM SKC=



000
FTUS45 KBYZ 281120
TAFLVM
TAF
KLVM 281120Z 2812/2912 VRB06KT P6SM SKC
     FM281600 27013G19KT P6SM SCT100
     FM290200 30007KT P6SM VCSH SCT100=



000
FTUS45 KBYZ 281120
TAFBIL
TAF
KBIL 281120Z 2812/2912 23012KT P6SM SKC
     FM281800 27012G19KT P6SM SCT100
     FM290200 21007KT P6SM SCT090=



000
FTUS45 KBYZ 280528
TAFMLS
TAF
KMLS 280528Z 2806/2906 18006KT P6SM SKC
     FM281600 26009KT P6SM FEW100
     FM290100 28005KT P6SM FEW070=



000
FTUS45 KBYZ 280528
TAFBIL
TAF
KBIL 280528Z 2806/2906 25012KT P6SM SKC
     FM281800 27012G19KT P6SM SCT100
     FM290200 21007KT P6SM SCT090=



000
FTUS45 KBYZ 280528
TAFLVM
TAF
KLVM 280528Z 2806/2906 VRB06KT P6SM SKC
     FM281600 27013G19KT P6SM SCT100
     FM290200 30007KT P6SM VCSH SCT100=



000
FTUS45 KBYZ 280528
TAFSHR
TAF
KSHR 280528Z 2806/2906 VRB04KT P6SM SKC
     FM281700 32011KT P6SM FEW100
     FM290000 VRB05KT P6SM SKC=



000
FTUS45 KBYZ 280528
TAFBIL
TAF
KBIL 280528Z 2806/2906 25012KT P6SM SKC
     FM281800 27012G19KT P6SM SCT100
     FM290200 21007KT P6SM SCT090=



000
FTUS45 KBYZ 280528
TAFSHR
TAF
KSHR 280528Z 2806/2906 VRB04KT P6SM SKC
     FM281700 32011KT P6SM FEW100
     FM290000 VRB05KT P6SM SKC=



000
FTUS45 KBYZ 280528
TAFLVM
TAF
KLVM 280528Z 2806/2906 VRB06KT P6SM SKC
     FM281600 27013G19KT P6SM SCT100
     FM290200 30007KT P6SM VCSH SCT100=



000
FTUS45 KBYZ 280528
TAFMLS
TAF
KMLS 280528Z 2806/2906 18006KT P6SM SKC
     FM281600 26009KT P6SM FEW100
     FM290100 28005KT P6SM FEW070=



000
FTUS45 KBYZ 272320
TAFMLS
TAF
KMLS 272320Z 2800/2824 17013KT P6SM SCT200
     FM280800 19007KT P6SM SKC
     FM281800 26011KT P6SM FEW100=



000
FTUS45 KBYZ 272320
TAFLVM
TAF
KLVM 272320Z 2800/2824 25014KT P6SM SKC
     FM282200 27013G19KT P6SM SCT100=



000
FTUS45 KBYZ 272320
TAFBIL
TAF
KBIL 272320Z 2800/2824 20010KT P6SM SCT100
     FM280400 21007KT P6SM SKC
     FM281800 27012G19KT P6SM SCT100=



000
FTUS45 KBYZ 272320
TAFSHR
TAF
KSHR 272320Z 2800/2824 VRB04KT P6SM VCSH FEW080 BKN200
     FM280300 VRB04KT P6SM SKC
     FM282200 VRB05KT P6SM FEW100=



000
FTUS45 KBYZ 272320
TAFMLS
TAF
KMLS 272320Z 2800/2824 17013KT P6SM SCT200
     FM280800 19007KT P6SM SKC
     FM281800 26011KT P6SM FEW100=



000
FTUS45 KBYZ 272320
TAFBIL
TAF
KBIL 272320Z 2800/2824 20010KT P6SM SCT100
     FM280400 21007KT P6SM SKC
     FM281800 27012G19KT P6SM SCT100=



000
FTUS45 KBYZ 272320
TAFLVM
TAF
KLVM 272320Z 2800/2824 25014KT P6SM SKC
     FM282200 27013G19KT P6SM SCT100=



000
FTUS45 KBYZ 272320
TAFSHR
TAF
KSHR 272320Z 2800/2824 VRB04KT P6SM VCSH FEW080 BKN200
     FM280300 VRB04KT P6SM SKC
     FM282200 VRB05KT P6SM FEW100=



000
FTUS45 KBYZ 271727
TAFMLS
TAF
KMLS 271727Z 2718/2818 18007KT P6SM SKC=



000
FTUS45 KBYZ 271727
TAFBIL
TAF
KBIL 271727Z 2718/2818 22007KT P6SM SKC
     FM272200 27006KT P6SM FEW100
     FM280400 24007KT P6SM SKC=



000
FTUS45 KBYZ 271727
TAFSHR
TAF
KSHR 271727Z 2718/2818 16005KT P6SM SCT080 BKN150
     FM280200 VRB04KT P6SM SCT150
     FM280600 VRB03KT P6SM SKC=



000
FTUS45 KBYZ 271727
TAFLVM
TAF
KLVM 271727Z 2718/2818 27010KT P6SM FEW100=



000
FTUS45 KBYZ 271727
TAFBIL
TAF
KBIL 271727Z 2718/2818 22007KT P6SM SKC
     FM272200 27006KT P6SM FEW100
     FM280400 24007KT P6SM SKC=



000
FTUS45 KBYZ 271727
TAFMLS
TAF
KMLS 271727Z 2718/2818 18007KT P6SM SKC=



000
FTUS45 KBYZ 271727
TAFSHR
TAF
KSHR 271727Z 2718/2818 16005KT P6SM SCT080 BKN150
     FM280200 VRB04KT P6SM SCT150
     FM280600 VRB03KT P6SM SKC=



000
FTUS45 KBYZ 271727
TAFLVM
TAF
KLVM 271727Z 2718/2818 27010KT P6SM FEW100=



000
FTUS45 KBYZ 271557 AAA
TAFLVM
TAF AMD
KLVM 271557Z 2716/2812 27010KT P6SM SKC
     FM280300 26006KT P6SM SKC=



000
FTUS45 KBYZ 271557 AAA
TAFLVM
TAF AMD
KLVM 271557Z 2716/2812 27010KT P6SM SKC
     FM280300 26006KT P6SM SKC=



000
FTUS45 KBYZ 271133
TAFMLS
TAF
KMLS 271133Z 2712/2812 15004KT P6SM SKC
     FM272100 18006KT P6SM SKC=



000
FTUS45 KBYZ 271133
TAFBIL
TAF
KBIL 271133Z 2712/2812 22009KT P6SM SKC
     FM272100 25005KT P6SM FEW100
     FM280400 26006KT P6SM SKC=



000
FTUS45 KBYZ 271133
TAFSHR
TAF
KSHR 271133Z 2712/2812 00000KT P6SM SKC
     FM271500 VRB04KT P6SM SCT100 BKN150
     FM271800 VRB04KT P6SM VCTS SCT080CB BKN100
     FM280200 VRB04KT P6SM FEW100
     FM280600 VRB04KT P6SM SKC=



000
FTUS45 KBYZ 271133
TAFLVM
TAF
KLVM 271133Z 2712/2812 33011KT P6SM SKC
     FM271800 27010KT P6SM SKC
     FM280300 26006KT P6SM SKC=



000
FTUS45 KBYZ 271133
TAFSHR
TAF
KSHR 271133Z 2712/2812 00000KT P6SM SKC
     FM271500 VRB04KT P6SM SCT100 BKN150
     FM271800 VRB04KT P6SM VCTS SCT080CB BKN100
     FM280200 VRB04KT P6SM FEW100
     FM280600 VRB04KT P6SM SKC=



000
FTUS45 KBYZ 271133
TAFBIL
TAF
KBIL 271133Z 2712/2812 22009KT P6SM SKC
     FM272100 25005KT P6SM FEW100
     FM280400 26006KT P6SM SKC=



000
FTUS45 KBYZ 271133
TAFMLS
TAF
KMLS 271133Z 2712/2812 15004KT P6SM SKC
     FM272100 18006KT P6SM SKC=



000
FTUS45 KBYZ 271133
TAFLVM
TAF
KLVM 271133Z 2712/2812 33011KT P6SM SKC
     FM271800 27010KT P6SM SKC
     FM280300 26006KT P6SM SKC=



000
FTUS45 KBYZ 270533
TAFSHR
TAF
KSHR 270533Z 2706/2806 29003KT P6SM FEW150
     FM271500 VRB04KT P6SM SCT100 BKN150
     FM271800 VRB04KT P6SM VCTS SCT080CB BKN100=



000
FTUS45 KBYZ 270533
TAFBIL
TAF
KBIL 270533Z 2706/2806 16006KT P6SM SKC
     FM270800 23007KT P6SM FEW150
     FM271200 23006KT P6SM SKC
     FM271800 25005KT P6SM FEW100=



000
FTUS45 KBYZ 270533
TAFLVM
TAF
KLVM 270533Z 2706/2806 29005KT P6SM FEW100
     FM271200 27006KT P6SM SKC
     FM271800 26009KT P6SM SKC=



000
FTUS45 KBYZ 270533
TAFMLS
TAF
KMLS 270533Z 2706/2806 14004KT P6SM SKC
     FM271200 15006KT P6SM SKC=



000
FTUS45 KBYZ 270533
TAFBIL
TAF
KBIL 270533Z 2706/2806 16006KT P6SM SKC
     FM270800 23007KT P6SM FEW150
     FM271200 23006KT P6SM SKC
     FM271800 25005KT P6SM FEW100=



000
FTUS45 KBYZ 270533
TAFMLS
TAF
KMLS 270533Z 2706/2806 14004KT P6SM SKC
     FM271200 15006KT P6SM SKC=



000
FTUS45 KBYZ 270533
TAFLVM
TAF
KLVM 270533Z 2706/2806 29005KT P6SM FEW100
     FM271200 27006KT P6SM SKC
     FM271800 26009KT P6SM SKC=



000
FTUS45 KBYZ 270533
TAFSHR
TAF
KSHR 270533Z 2706/2806 29003KT P6SM FEW150
     FM271500 VRB04KT P6SM SCT100 BKN150
     FM271800 VRB04KT P6SM VCTS SCT080CB BKN100=



000
FTUS45 KBYZ 262334
TAFSHR
TAF
KSHR 262334Z 2700/2724 VRB04KT P6SM FEW090
     FM271900 10005KT P6SM SCT100 BKN150=



000
FTUS45 KBYZ 262334
TAFMLS
TAF
KMLS 262334Z 2700/2724 VRB04KT P6SM SKC
     FM270400 15005KT P6SM SKC=



000
FTUS45 KBYZ 262334
TAFBIL
TAF
KBIL 262334Z 2700/2724 VRB05KT P6SM FEW070
     FM270700 22007KT P6SM SKC=



000
FTUS45 KBYZ 262334
TAFLVM
TAF
KLVM 262334Z 2700/2724 VRB05KT P6SM FEW100
     FM271300 27006KT P6SM SKC=



000
FTUS45 KBYZ 262334
TAFLVM
TAF
KLVM 262334Z 2700/2724 VRB05KT P6SM FEW100
     FM271300 27006KT P6SM SKC=



000
FTUS45 KBYZ 262334
TAFBIL
TAF
KBIL 262334Z 2700/2724 VRB05KT P6SM FEW070
     FM270700 22007KT P6SM SKC=



000
FTUS45 KBYZ 262334
TAFMLS
TAF
KMLS 262334Z 2700/2724 VRB04KT P6SM SKC
     FM270400 15005KT P6SM SKC=



000
FTUS45 KBYZ 262334
TAFSHR
TAF
KSHR 262334Z 2700/2724 VRB04KT P6SM FEW090
     FM271900 10005KT P6SM SCT100 BKN150=



    US Dept of Commerce
    National Oceanic and Atmospheric Administration
    National Weather Service
    1325 East West Highway
    Silver Spring, MD 20910
    Page Author: NWS Internet Services Team
Disclaimer
Information Quality
Credits
Glossary
Privacy Policy
Freedom of Information Act (FOIA)
About Us
Career Opportunities